createdAt,value
2022-09-25T00:00:35.065Z,100743.81
2022-09-25T00:03:07.504Z,100748.78
2022-09-25T00:05:41.897Z,100753.75
2022-09-25T00:08:16.041Z,100760.00
2022-09-25T00:10:51.699Z,100740.47
2022-09-25T00:13:24.266Z,100764.13
2022-09-25T00:15:59.455Z,100760.00
2022-09-25T00:18:50.852Z,100768.72
2022-09-25T00:21:23.502Z,100772.00
2022-09-25T00:23:56.230Z,100766.22
2022-09-25T00:26:30.905Z,100721.03
2022-09-25T00:29:04.496Z,100790.94
2022-09-25T00:31:37.390Z,100800.25
2022-09-25T00:34:10.191Z,100805.47
2022-09-25T00:36:42.922Z,100810.03
2022-09-25T00:39:15.805Z,100817.72
2022-09-25T00:41:48.570Z,100818.13
2022-09-25T00:44:58.166Z,100821.47
2022-09-25T00:47:45.114Z,100819.38
2022-09-25T00:51:09.684Z,100832.88
2022-09-25T00:53:43.008Z,100826.81
2022-09-25T00:56:16.576Z,100802.34
2022-09-25T00:58:50.070Z,100848.44
2022-09-25T01:01:23.841Z,100848.41
2022-09-25T01:03:57.793Z,100850.91
2022-09-25T01:06:30.718Z,100850.06
2022-09-25T01:09:04.010Z,100844.63
2022-09-25T01:11:36.941Z,100853.13
2022-09-25T01:14:10.812Z,100851.66
2022-09-25T01:16:55.077Z,100823.84
2022-09-25T01:19:33.927Z,100861.00
2022-09-25T01:22:15.882Z,100876.78
2022-09-25T01:24:57.488Z,100864.94
2022-09-25T01:27:44.841Z,100867.44
2022-09-25T01:30:21.884Z,100850.34
2022-09-25T01:33:07.003Z,100864.06
2022-09-25T01:36:08.035Z,100868.19
2022-09-25T01:38:54.762Z,100856.13
2022-09-25T01:41:42.101Z,100705.03
2022-09-25T01:44:24.925Z,100867.00
2022-09-25T01:47:04.604Z,100845.59
2022-09-25T01:49:59.941Z,100864.72
2022-09-25T01:52:43.827Z,100874.19
2022-09-25T01:55:43.876Z,100867.00
2022-09-25T01:58:18.854Z,100797.84
2022-09-25T02:00:58.627Z,100820.63
2022-09-25T02:03:50.638Z,100871.00
2022-09-25T02:06:23.888Z,100881.97
2022-09-25T02:09:15.106Z,100884.84
2022-09-25T02:11:52.592Z,100892.31
2022-09-25T02:14:52.967Z,100812.56
2022-09-25T02:18:03.693Z,100903.59
2022-09-25T02:20:38.599Z,100823.78
2022-09-25T02:23:45.771Z,100889.78
2022-09-25T02:26:37.784Z,100846.66
2022-09-25T02:29:11.028Z,100890.84
2022-09-25T02:32:01.205Z,100834.06
2022-09-25T02:34:34.913Z,100885.41
2022-09-25T02:37:18.324Z,100887.28
2022-09-25T02:39:54.491Z,100801.16
2022-09-25T02:42:41.846Z,100873.00
2022-09-25T02:45:36.002Z,100871.50
2022-09-25T02:48:13.338Z,100870.22
2022-09-25T02:51:23.214Z,100852.91
2022-09-25T02:54:22.649Z,100805.78
2022-09-25T02:57:04.474Z,100791.16
2022-09-25T02:59:43.672Z,100731.69
2022-09-25T03:02:18.055Z,100840.44
2022-09-25T03:04:52.732Z,100751.19
2022-09-25T03:07:25.568Z,100856.69
2022-09-25T03:10:00.397Z,100855.47
2022-09-25T03:12:38.586Z,100861.78
2022-09-25T03:15:12.695Z,100857.78
2022-09-25T03:17:45.237Z,100843.47
2022-09-25T03:20:18.006Z,100846.78
2022-09-25T03:22:51.025Z,100841.53
2022-09-25T03:25:24.015Z,100837.56
2022-09-25T03:27:58.675Z,100833.34
2022-09-25T03:30:31.249Z,100769.16
2022-09-25T03:33:04.214Z,100827.91
2022-09-25T03:35:37.217Z,100819.16
2022-09-25T03:38:10.260Z,100830.78
2022-09-25T03:40:42.904Z,100810.81
2022-09-25T03:45:45.493Z,100761.94
2022-09-25T03:48:18.848Z,100821.09
2022-09-25T03:50:52.117Z,100825.72
2022-09-25T03:53:26.899Z,100810.72
2022-09-25T03:55:59.806Z,100805.50
2022-09-25T03:58:32.697Z,100809.00
2022-09-25T04:01:05.748Z,100802.34
2022-09-25T04:03:38.948Z,100779.75
2022-09-25T04:06:11.592Z,100804.75
2022-09-25T04:08:43.963Z,100798.41
2022-09-25T04:11:18.150Z,100789.72
2022-09-25T04:13:51.060Z,100773.91
2022-09-25T04:16:24.020Z,100771.31
2022-09-25T04:18:56.466Z,100756.41
2022-09-25T04:21:28.933Z,100765.47
2022-09-25T04:24:19.684Z,100755.50
2022-09-25T04:26:55.342Z,100746.84
2022-09-25T04:29:28.376Z,100722.50
2022-09-25T04:32:18.928Z,100730.31
2022-09-25T04:34:51.307Z,100703.75
2022-09-25T04:37:27.845Z,100718.56
2022-09-25T04:40:00.728Z,100713.06
2022-09-25T04:42:33.071Z,100710.47
2022-09-25T04:45:05.683Z,100710.38
2022-09-25T04:47:38.300Z,100701.16
2022-09-25T04:50:11.098Z,100694.56
2022-09-25T04:52:43.611Z,100684.31
2022-09-25T04:55:16.053Z,100667.66
2022-09-25T04:57:59.157Z,100675.81
2022-09-25T05:00:34.126Z,100580.16
2022-09-25T05:03:07.632Z,100656.22
2022-09-25T05:05:40.194Z,100646.88
2022-09-25T05:08:13.361Z,100634.38
2022-09-25T05:10:46.224Z,100624.00
2022-09-25T05:13:18.840Z,100625.75
2022-09-25T05:15:52.602Z,100604.50
2022-09-25T05:18:25.764Z,100605.56
2022-09-25T05:20:59.548Z,100601.38
2022-09-25T05:23:32.142Z,100598.41
2022-09-25T05:26:04.906Z,100589.91
2022-09-25T05:28:37.394Z,100576.09
2022-09-25T05:31:09.971Z,100603.94
2022-09-25T05:33:42.707Z,100549.47
2022-09-25T05:36:15.200Z,100563.88
2022-09-25T05:38:47.748Z,100586.50
2022-09-25T05:41:20.645Z,100574.94
2022-09-25T05:43:53.286Z,100569.22
2022-09-25T05:46:25.935Z,100572.66
2022-09-25T05:48:58.573Z,100569.53
2022-09-25T05:51:31.641Z,100552.75
2022-09-25T05:54:04.136Z,100565.97
2022-09-25T05:56:36.711Z,100550.16
2022-09-25T05:59:09.163Z,100528.06
2022-09-25T06:01:42.741Z,100546.72
2022-09-25T06:04:15.351Z,100547.19
2022-09-25T06:06:48.087Z,100523.22
2022-09-25T06:09:20.906Z,100518.53
2022-09-25T06:11:55.078Z,100518.78
2022-09-25T06:14:27.895Z,100517.56
2022-09-25T06:17:01.113Z,100507.78
2022-09-25T06:19:34.032Z,100521.19
2022-09-25T06:22:06.616Z,100517.88
2022-09-25T06:24:39.177Z,100522.13
2022-09-25T06:27:12.326Z,100529.56
2022-09-25T06:29:45.047Z,100527.06
2022-09-25T06:32:18.569Z,100515.91
2022-09-25T06:34:51.659Z,100509.97
2022-09-25T06:37:24.123Z,100501.72
2022-09-25T06:39:56.729Z,100482.50
2022-09-25T06:42:29.269Z,100477.00
2022-09-25T06:45:01.818Z,100448.38
2022-09-25T06:47:34.227Z,100444.97
2022-09-25T06:50:06.874Z,100446.75
2022-09-25T06:52:46.552Z,100434.00
2022-09-25T06:55:19.094Z,100436.38
2022-09-25T06:57:51.875Z,100431.41
2022-09-25T07:00:24.625Z,100439.44
2022-09-25T07:03:15.285Z,100428.25
2022-09-25T07:05:49.688Z,100430.84
2022-09-25T07:08:23.102Z,100429.41
2022-09-25T07:10:57.632Z,100365.97
2022-09-25T07:13:33.052Z,100381.75
2022-09-25T07:16:12.190Z,100360.19
2022-09-25T07:18:45.613Z,100450.63
2022-09-25T07:21:20.329Z,100393.31
2022-09-25T07:23:54.230Z,100438.75
2022-09-25T07:26:31.762Z,100434.84
2022-09-25T07:29:07.991Z,100363.50
2022-09-25T07:31:40.527Z,100416.94
2022-09-25T07:34:13.290Z,100421.28
2022-09-25T07:36:45.855Z,100414.22
2022-09-25T07:39:18.767Z,100418.56
2022-09-25T07:41:51.826Z,100404.00
2022-09-25T07:44:29.182Z,100393.38
2022-09-25T07:47:05.345Z,100402.78
2022-09-25T07:49:37.937Z,100411.41
2022-09-25T07:52:10.767Z,100416.34
2022-09-25T07:54:44.725Z,100393.38
2022-09-25T07:57:17.906Z,100420.34
2022-09-25T07:59:50.341Z,100439.78
2022-09-25T08:02:25.585Z,100431.09
2022-09-25T08:04:58.480Z,100439.78
2022-09-25T08:07:31.143Z,100428.25
2022-09-25T08:10:03.691Z,100429.41
2022-09-25T08:12:36.585Z,100435.31
2022-09-25T08:15:09.599Z,100451.56
2022-09-25T08:17:42.511Z,100457.56
2022-09-25T08:20:15.116Z,100478.41
2022-09-25T08:22:47.759Z,100501.13
2022-09-25T08:25:20.239Z,100506.78
2022-09-25T08:27:53.050Z,100500.09
2022-09-25T08:30:26.333Z,100493.28
2022-09-25T08:32:58.804Z,100505.91
2022-09-25T08:35:31.353Z,100454.41
2022-09-25T08:38:03.899Z,100509.00
2022-09-25T08:40:44.442Z,100501.91
2022-09-25T08:43:24.609Z,100492.84
2022-09-25T08:46:19.968Z,100420.16
2022-09-25T08:49:11.552Z,100488.50
2022-09-25T08:51:54.411Z,100483.69
2022-09-25T08:54:29.275Z,100485.34
2022-09-25T08:57:30.774Z,100418.66
2022-09-25T09:00:16.007Z,100473.91
2022-09-25T09:02:59.987Z,100461.88
2022-09-25T09:05:38.901Z,100385.41
2022-09-25T09:08:22.094Z,100454.44
2022-09-25T09:11:08.898Z,100410.28
2022-09-25T09:14:06.942Z,100470.00
2022-09-25T09:16:57.374Z,100444.88
2022-09-25T09:19:30.575Z,100461.16
2022-09-25T09:22:13.786Z,100483.56
2022-09-25T09:24:59.923Z,100426.03
2022-09-25T09:27:38.749Z,100375.47
2022-09-25T09:30:14.723Z,100528.94
2022-09-25T09:33:08.531Z,100535.47
2022-09-25T09:36:28.818Z,100552.78
2022-09-25T09:39:19.710Z,100547.00
2022-09-25T09:41:59.797Z,100570.69
2022-09-25T09:45:00.613Z,100575.50
2022-09-25T09:47:44.419Z,100597.63
2022-09-25T09:50:52.171Z,100592.06
2022-09-25T09:53:59.778Z,100597.41
2022-09-25T09:56:34.618Z,100605.31
2022-09-25T09:59:28.378Z,100535.06
2022-09-25T10:02:07.273Z,100535.06
2022-09-25T10:04:43.275Z,100608.31
2022-09-25T10:07:21.375Z,100631.31
2022-09-25T10:09:57.026Z,100618.84
2022-09-25T10:12:35.420Z,100558.66
2022-09-25T10:15:20.571Z,100530.53
2022-09-25T10:17:53.276Z,100623.66
2022-09-25T10:20:29.399Z,100637.81
2022-09-25T10:23:04.963Z,100632.03
2022-09-25T10:25:40.059Z,100637.19
2022-09-25T10:28:25.623Z,100647.88
2022-09-25T10:31:00.499Z,100605.00
2022-09-25T10:33:34.360Z,100597.81
2022-09-25T10:36:07.027Z,100651.19
2022-09-25T10:39:17.718Z,100658.59
2022-09-25T10:41:50.091Z,100653.28
2022-09-25T10:44:36.142Z,100654.81
2022-09-25T10:47:39.055Z,100648.78
2022-09-25T10:50:23.485Z,100562.75
2022-09-25T10:53:01.758Z,100642.16
2022-09-25T10:55:41.741Z,100665.84
2022-09-25T10:58:14.230Z,100655.03
2022-09-25T11:00:59.915Z,100584.13
2022-09-25T11:03:41.499Z,100668.00
2022-09-25T11:06:31.624Z,100678.84
2022-09-25T11:09:11.824Z,100687.13
2022-09-25T11:11:48.391Z,100689.22
2022-09-25T11:14:34.298Z,100686.50
2022-09-25T11:17:08.283Z,100619.53
2022-09-25T11:19:41.273Z,100700.50
2022-09-25T11:22:39.023Z,100699.75
2022-09-25T11:25:40.003Z,100683.41
2022-09-25T11:28:18.936Z,100708.03
2022-09-25T11:31:03.780Z,100705.97
2022-09-25T11:33:44.332Z,100711.78
2022-09-25T11:36:19.433Z,100714.72
2022-09-25T11:39:15.933Z,100714.31
2022-09-25T11:41:56.917Z,100733.88
2022-09-25T11:44:36.952Z,100765.91
2022-09-25T11:47:21.658Z,100800.91
2022-09-25T11:49:56.187Z,100839.66
2022-09-25T11:52:44.426Z,100845.94
2022-09-25T11:55:35.550Z,100856.34
2022-09-25T11:58:35.302Z,100763.41
2022-09-25T12:01:34.302Z,100828.47
2022-09-25T12:04:45.757Z,100819.63
2022-09-25T12:07:42.737Z,100827.03
2022-09-25T12:10:26.635Z,100747.19
2022-09-25T12:13:22.283Z,100820.03
2022-09-25T12:16:15.824Z,100818.53
2022-09-25T12:19:02.919Z,100818.91
2022-09-25T12:21:53.990Z,100829.72
2022-09-25T12:24:45.494Z,100848.09
2022-09-25T12:27:36.897Z,100842.00
2022-09-25T12:30:25.551Z,100768.38
2022-09-25T12:33:14.309Z,100824.50
2022-09-25T12:36:09.693Z,100812.56
2022-09-25T12:39:23.152Z,100779.22
2022-09-25T12:42:09.051Z,100846.38
2022-09-25T12:44:54.563Z,100819.84
2022-09-25T12:47:39.243Z,100849.69
2022-09-25T12:50:19.418Z,100853.91
2022-09-25T12:53:01.247Z,100849.00
2022-09-25T12:55:47.217Z,100864.25
2022-09-25T12:58:28.620Z,100871.97
2022-09-25T13:01:14.840Z,100870.78
2022-09-25T13:04:01.498Z,100886.19
2022-09-25T13:06:52.499Z,100885.78
2022-09-25T13:09:37.082Z,100838.91
2022-09-25T13:12:39.693Z,100893.75
2022-09-25T13:15:16.805Z,100897.53
2022-09-25T13:17:49.598Z,100880.91
2022-09-25T13:20:32.889Z,100906.47
2022-09-25T13:23:32.303Z,100877.81
2022-09-25T13:26:20.117Z,100842.13
2022-09-25T13:29:03.090Z,100845.25
2022-09-25T13:31:43.041Z,100913.41
2022-09-25T13:34:20.954Z,100916.31
2022-09-25T13:37:02.996Z,100905.47
2022-09-25T13:39:57.759Z,100906.09
2022-09-25T13:42:40.597Z,100916.72
2022-09-25T13:45:36.596Z,100850.47
2022-09-25T13:48:40.795Z,100925.03
2022-09-25T13:51:44.573Z,100930.88
2022-09-25T13:54:24.260Z,100928.38
2022-09-25T13:57:02.092Z,100933.38
2022-09-25T13:59:43.908Z,100928.38
2022-09-25T14:03:05.388Z,100942.09
2022-09-25T14:06:07.352Z,100937.53
2022-09-25T14:08:44.925Z,100951.22
2022-09-25T14:11:25.191Z,100932.09
2022-09-25T14:14:04.489Z,100941.66
2022-09-25T14:16:51.008Z,100867.47
2022-09-25T14:19:29.418Z,100861.44
2022-09-25T14:22:06.608Z,100917.09
2022-09-25T14:24:49.369Z,100949.56
2022-09-25T14:27:29.719Z,100954.16
2022-09-25T14:30:10.132Z,100953.69
2022-09-25T14:33:24.161Z,100928.56
2022-09-25T14:36:17.433Z,100959.97
2022-09-25T14:39:29.226Z,100877.63
2022-09-25T14:42:27.216Z,100888.84
2022-09-25T14:45:11.406Z,100942.72
2022-09-25T14:47:47.165Z,100897.59
2022-09-25T14:50:31.410Z,100985.31
2022-09-25T14:53:16.167Z,100907.13
2022-09-25T14:55:54.646Z,100971.63
2022-09-25T14:58:31.589Z,100986.34
2022-09-25T15:01:33.940Z,100993.63
2022-09-25T15:04:10.690Z,101001.09
2022-09-25T15:06:43.888Z,100971.19
2022-09-25T15:09:50.314Z,100993.63
2022-09-25T15:12:32.757Z,100989.06
2022-09-25T15:15:13.520Z,100924.59
2022-09-25T15:17:57.224Z,100922.09
2022-09-25T15:20:34.173Z,100962.41
2022-09-25T15:23:10.567Z,100933.28
2022-09-25T15:25:50.351Z,100994.47
2022-09-25T15:28:26.883Z,100973.22
2022-09-25T15:31:02.323Z,100981.34
2022-09-25T15:33:38.817Z,100969.72
2022-09-25T15:36:25.470Z,100887.97
2022-09-25T15:39:05.517Z,100982.81
2022-09-25T15:41:37.993Z,100974.72
2022-09-25T15:44:27.995Z,100818.94
2022-09-25T15:47:03.654Z,100961.63
2022-09-25T15:49:40.985Z,100930.00
2022-09-25T15:52:21.600Z,100960.75
2022-09-25T15:54:54.192Z,100934.97
2022-09-25T15:57:31.075Z,100937.91
2022-09-25T16:00:27.655Z,100890.91
2022-09-25T16:03:24.059Z,100920.44
2022-09-25T16:05:57.519Z,100926.47
2022-09-25T16:08:38.312Z,100930.00
2022-09-25T16:11:25.308Z,100911.50
2022-09-25T16:14:43.442Z,100911.69
2022-09-25T16:17:42.268Z,100910.66
2022-09-25T16:20:26.431Z,100910.03
2022-09-25T16:23:02.372Z,100835.47
2022-09-25T16:25:44.341Z,100836.91
2022-09-25T16:28:24.321Z,100889.28
2022-09-25T16:31:07.257Z,100806.13
2022-09-25T16:33:44.527Z,100878.88
2022-09-25T16:36:19.031Z,100868.91
2022-09-25T16:39:06.620Z,100867.66
2022-09-25T16:41:40.908Z,100758.38
2022-09-25T16:44:23.097Z,100789.13
2022-09-25T16:46:55.501Z,100845.66
2022-09-25T16:49:28.306Z,100847.31
2022-09-25T16:52:01.820Z,100834.44
2022-09-25T16:54:35.133Z,100824.66
2022-09-25T16:57:07.621Z,100842.34
2022-09-25T16:59:40.867Z,100831.56
2022-09-25T17:02:44.664Z,100743.84
2022-09-25T17:05:29.009Z,100743.44
2022-09-25T17:08:18.366Z,100738.88
2022-09-25T17:10:53.393Z,100820.53
2022-09-25T17:13:32.295Z,100654.56
2022-09-25T17:16:05.179Z,100787.31
2022-09-25T17:18:38.424Z,100786.28
2022-09-25T17:21:16.773Z,100699.66
2022-09-25T17:23:49.702Z,100788.34
2022-09-25T17:26:26.763Z,100749.69
2022-09-25T17:28:59.673Z,100772.13
2022-09-25T17:31:32.605Z,100773.00
2022-09-25T17:34:18.301Z,100769.66
2022-09-25T17:36:50.728Z,100760.31
2022-09-25T17:39:23.459Z,100761.75
2022-09-25T17:41:55.949Z,100736.59
2022-09-25T17:44:28.926Z,100753.88
2022-09-25T17:47:02.539Z,100741.41
2022-09-25T17:49:35.018Z,100741.41
2022-09-25T17:52:07.718Z,100724.38
2022-09-25T17:54:40.242Z,100681.63
2022-09-25T17:57:12.669Z,100724.38
2022-09-25T17:59:45.519Z,100724.78
2022-09-25T18:02:18.787Z,100708.19
2022-09-25T18:04:51.461Z,100730.19
2022-09-25T18:07:25.998Z,100713.59
2022-09-25T18:10:00.281Z,100707.38
2022-09-25T18:12:32.648Z,100707.78
2022-09-25T18:15:05.834Z,100695.75
2022-09-25T18:17:38.268Z,100700.28
2022-09-25T18:20:32.851Z,100643.03
2022-09-25T18:23:05.603Z,100705.91
2022-09-25T18:25:42.767Z,100639.09
2022-09-25T18:28:16.034Z,100689.91
2022-09-25T18:30:48.946Z,100695.31
2022-09-25T18:33:24.438Z,100687.44
2022-09-25T18:35:56.980Z,100690.97
2022-09-25T18:38:29.359Z,100686.63
2022-09-25T18:41:05.526Z,100682.25
2022-09-25T18:43:37.908Z,100682.47
2022-09-25T18:46:11.114Z,100679.16
2022-09-25T18:48:49.309Z,100623.75
2022-09-25T18:51:21.756Z,100686.19
2022-09-25T18:53:54.332Z,100681.84
2022-09-25T18:56:28.670Z,100676.63
2022-09-25T18:59:01.552Z,100680.38
2022-09-25T19:01:34.379Z,100661.72
2022-09-25T19:04:07.962Z,100664.00
2022-09-25T19:06:40.798Z,100661.72
2022-09-25T19:09:16.703Z,100675.41
2022-09-25T19:11:49.733Z,100677.06
2022-09-25T19:14:22.273Z,100685.38
2022-09-25T19:16:54.820Z,100689.09
2022-09-25T19:19:27.213Z,100622.06
2022-09-25T19:21:59.766Z,100677.06
2022-09-25T19:24:32.546Z,100679.53
2022-09-25T19:27:07.330Z,100664.59
2022-09-25T19:29:39.945Z,100655.47
2022-09-25T19:32:15.901Z,100657.56
2022-09-25T19:34:48.427Z,100671.69
2022-09-25T19:37:20.874Z,100660.25
2022-09-25T19:40:12.093Z,100652.16
2022-09-25T19:42:44.544Z,100659.44
2022-09-25T19:45:17.009Z,100655.91
2022-09-25T19:47:49.779Z,100653.00
2022-09-25T19:50:22.904Z,100636.19
2022-09-25T19:52:56.306Z,100650.94
2022-09-25T19:55:28.744Z,100625.84
2022-09-25T19:58:01.182Z,100640.56
2022-09-25T20:00:33.864Z,100644.28
2022-09-25T20:03:06.771Z,100635.16
2022-09-25T20:05:40.920Z,100550.09
2022-09-25T20:08:14.593Z,100636.19
2022-09-25T20:10:47.295Z,100626.88
2022-09-25T20:13:19.809Z,100629.34
2022-09-25T20:15:52.306Z,100624.38
2022-09-25T20:18:24.930Z,100458.84
2022-09-25T20:20:58.531Z,100597.22
2022-09-25T20:23:31.462Z,100628.94
2022-09-25T20:26:15.379Z,100550.28
2022-09-25T20:28:48.581Z,100628.09
2022-09-25T20:31:21.396Z,100621.91
2022-09-25T20:33:54.396Z,100609.63
2022-09-25T20:36:27.364Z,100619.38
2022-09-25T20:39:00.120Z,100616.88
2022-09-25T20:41:33.028Z,100605.28
2022-09-25T20:44:06.736Z,100616.06
2022-09-25T20:46:39.496Z,100607.34
2022-09-25T20:49:12.836Z,100615.88
2022-09-25T20:51:45.291Z,100613.59
2022-09-25T20:54:17.775Z,100609.03
2022-09-25T20:56:50.219Z,100611.91
2022-09-25T20:59:23.194Z,100610.91
2022-09-25T21:01:55.702Z,100611.91
2022-09-25T21:04:28.766Z,100617.72
2022-09-25T21:07:01.668Z,100610.69
2022-09-25T21:09:34.065Z,100605.06
2022-09-25T21:12:07.357Z,100600.31
2022-09-25T21:14:39.894Z,100562.50
2022-09-25T21:17:12.819Z,100609.03
2022-09-25T21:19:45.434Z,100589.28
2022-09-25T21:22:18.207Z,100619.19
2022-09-25T21:24:51.622Z,100604.44
2022-09-25T21:27:24.000Z,100613.78
2022-09-25T21:29:56.421Z,100608.00
2022-09-25T21:32:31.495Z,100574.56
2022-09-25T21:35:04.136Z,100610.47
2022-09-25T21:37:36.711Z,100615.84
2022-09-25T21:40:09.797Z,100618.56
2022-09-25T21:42:42.199Z,100607.31
2022-09-25T21:45:14.674Z,100613.94
2022-09-25T21:47:47.143Z,100615.22
2022-09-25T21:50:19.592Z,100618.94
2022-09-25T21:52:52.973Z,100622.28
2022-09-25T21:55:25.486Z,100609.81
2022-09-25T21:57:58.189Z,100618.94
2022-09-25T22:00:30.990Z,100618.94
2022-09-25T22:03:03.422Z,100610.22
2022-09-25T22:05:35.988Z,100602.53
2022-09-25T22:08:08.956Z,100623.06
2022-09-25T22:10:41.783Z,100622.47
2022-09-25T22:13:14.860Z,100619.75
2022-09-25T22:15:47.691Z,100611.03
2022-09-25T22:18:20.555Z,100626.16
2022-09-25T22:20:55.011Z,100620.59
2022-09-25T22:23:28.376Z,100635.94
2022-09-25T22:26:03.480Z,100572.84
2022-09-25T22:28:37.621Z,100643.19
2022-09-25T22:31:23.992Z,100628.03
2022-09-25T22:34:05.607Z,100645.44
2022-09-25T22:36:38.896Z,100639.22
2022-09-25T22:39:15.420Z,100613.09
2022-09-25T22:41:52.470Z,100579.06
2022-09-25T22:44:25.880Z,100649.19
2022-09-25T22:47:02.404Z,100642.97
2022-09-25T22:49:36.623Z,100641.69
2022-09-25T22:52:09.517Z,100642.75
2022-09-25T22:54:42.677Z,100650.88
2022-09-25T22:57:15.483Z,100648.59
2022-09-25T22:59:48.290Z,100629.91
2022-09-25T23:02:21.294Z,100637.56
2022-09-25T23:04:55.435Z,100649.41
2022-09-25T23:07:28.339Z,100661.91
2022-09-25T23:10:01.193Z,100669.97
2022-09-25T23:12:33.957Z,100654.00
2022-09-25T23:15:07.526Z,100662.13
2022-09-25T23:17:40.372Z,100679.13
2022-09-25T23:20:13.311Z,100676.22
2022-09-25T23:22:46.265Z,100647.53
2022-09-25T23:25:19.502Z,100686.59
2022-09-25T23:27:52.823Z,100696.56
2022-09-25T23:30:26.590Z,100679.13
2022-09-25T23:32:59.511Z,100699.06
2022-09-25T23:35:35.873Z,100689.91
2022-09-25T23:38:09.120Z,100642.63
2022-09-25T23:40:42.390Z,100689.94
2022-09-25T23:43:16.932Z,100703.66
2022-09-25T23:45:50.825Z,100707.81
2022-09-25T23:48:23.805Z,100712.38
2022-09-25T23:50:56.916Z,100717.34
2022-09-25T23:53:29.778Z,100724.00
2022-09-25T23:56:16.931Z,100657.16
2022-09-25T23:58:51.128Z,100727.31
